createdAt,value
2018-12-10T00:00:13.885Z,997.42
2018-12-10T00:01:13.876Z,997.27
2018-12-10T00:02:13.861Z,997.29
2018-12-10T00:03:13.854Z,997.35
2018-12-10T00:04:13.839Z,997.36
2018-12-10T00:05:13.831Z,997.35
2018-12-10T00:06:13.819Z,997.36
2018-12-10T00:07:13.805Z,997.39
2018-12-10T00:08:13.793Z,997.41
2018-12-10T00:09:13.783Z,997.38
2018-12-10T00:10:13.772Z,997.45
2018-12-10T00:11:13.763Z,997.42
2018-12-10T00:12:13.749Z,997.46
2018-12-10T00:13:13.738Z,997.49
2018-12-10T00:14:13.742Z,997.48
2018-12-10T00:15:13.717Z,997.52
2018-12-10T00:16:13.704Z,997.48
2018-12-10T00:17:13.697Z,997.53
2018-12-10T00:18:13.687Z,997.56
2018-12-10T00:19:13.673Z,997.55
2018-12-10T00:20:13.714Z,997.58
2018-12-10T00:21:13.648Z,997.63
2018-12-10T00:22:13.637Z,997.62
2018-12-10T00:23:13.625Z,997.56
2018-12-10T00:24:13.613Z,997.57
2018-12-10T00:25:13.603Z,997.63
2018-12-10T00:26:13.594Z,997.61
2018-12-10T00:27:13.582Z,997.69
2018-12-10T00:28:13.682Z,997.69
2018-12-10T00:29:13.561Z,997.72
2018-12-10T00:30:13.548Z,997.73
2018-12-10T00:31:13.541Z,997.73
2018-12-10T00:32:13.525Z,997.81
2018-12-10T00:33:13.517Z,997.83
2018-12-10T00:34:13.503Z,997.91
2018-12-10T00:35:13.490Z,997.94
2018-12-10T00:36:13.481Z,997.90
2018-12-10T00:37:13.469Z,997.93
2018-12-10T00:38:13.459Z,997.92
2018-12-10T00:39:13.448Z,997.97
2018-12-10T00:40:13.437Z,997.97
2018-12-10T00:41:13.424Z,997.97
2018-12-10T00:42:13.413Z,998.00
2018-12-10T00:43:13.405Z,998.08
2018-12-10T00:44:13.394Z,998.05
2018-12-10T00:45:13.385Z,998.19
2018-12-10T00:46:13.377Z,998.17
2018-12-10T00:47:13.360Z,998.31
2018-12-10T00:48:13.347Z,998.21
2018-12-10T00:49:13.337Z,998.23
2018-12-10T00:50:13.329Z,998.23
2018-12-10T00:51:13.312Z,998.25
2018-12-10T00:52:13.303Z,998.21
2018-12-10T00:53:13.292Z,998.31
2018-12-10T00:54:13.279Z,998.28
2018-12-10T00:55:13.270Z,998.29
2018-12-10T00:56:13.258Z,998.34
2018-12-10T00:57:13.249Z,998.35
2018-12-10T00:58:13.235Z,998.36
2018-12-10T00:59:13.225Z,998.36
2018-12-10T01:00:13.217Z,998.42
2018-12-10T01:01:13.205Z,998.38
2018-12-10T01:02:13.190Z,998.48
2018-12-10T01:03:13.180Z,998.44
2018-12-10T01:04:13.178Z,998.49
2018-12-10T01:05:13.156Z,998.45
2018-12-10T01:06:13.146Z,998.45
2018-12-10T01:07:13.135Z,998.48
2018-12-10T01:08:13.124Z,998.57
2018-12-10T01:09:13.113Z,998.54
2018-12-10T01:10:13.101Z,998.47
2018-12-10T01:11:13.090Z,998.59
2018-12-10T01:12:13.080Z,998.60
2018-12-10T01:13:13.071Z,998.61
2018-12-10T01:14:13.058Z,998.62
2018-12-10T01:15:13.046Z,998.59
2018-12-10T01:16:13.038Z,998.62
2018-12-10T01:17:13.023Z,998.72
2018-12-10T01:18:13.016Z,998.74
2018-12-10T01:19:13.025Z,998.67
2018-12-10T01:20:12.988Z,998.74
2018-12-10T01:21:12.977Z,998.69
2018-12-10T01:22:12.968Z,998.72
2018-12-10T01:23:12.958Z,998.78
2018-12-10T01:24:12.946Z,998.78
2018-12-10T01:25:12.934Z,998.81
2018-12-10T01:26:12.924Z,998.89
2018-12-10T01:27:12.912Z,998.78
2018-12-10T01:28:12.902Z,998.85
2018-12-10T01:29:12.894Z,998.88
2018-12-10T01:30:12.877Z,998.92
2018-12-10T01:31:12.867Z,999.01
2018-12-10T01:32:12.856Z,998.97
2018-12-10T01:33:12.846Z,998.93
2018-12-10T01:34:12.833Z,998.97
2018-12-10T01:35:12.825Z,999.01
2018-12-10T01:36:12.818Z,999.03
2018-12-10T01:37:12.802Z,998.96
2018-12-10T01:38:12.789Z,999.04
2018-12-10T01:39:12.778Z,998.93
2018-12-10T01:40:12.768Z,998.94
2018-12-10T01:41:12.758Z,999.08
2018-12-10T01:42:12.745Z,999.09
2018-12-10T01:43:12.733Z,999.12
2018-12-10T01:44:12.722Z,999.13
2018-12-10T01:45:12.712Z,999.15
2018-12-10T01:46:12.700Z,999.06
2018-12-10T01:47:12.689Z,999.10
2018-12-10T01:48:12.678Z,999.10
2018-12-10T01:49:12.666Z,999.03
2018-12-10T01:50:12.655Z,999.07
2018-12-10T01:51:12.646Z,999.11
2018-12-10T01:52:12.637Z,999.15
2018-12-10T01:53:12.620Z,999.10
2018-12-10T01:54:12.611Z,999.12
2018-12-10T01:55:12.600Z,999.17
2018-12-10T01:56:12.592Z,999.21
2018-12-10T01:57:12.578Z,999.23
2018-12-10T01:58:12.565Z,999.21
2018-12-10T01:59:12.555Z,999.22
2018-12-10T02:00:12.544Z,999.25
2018-12-10T02:01:12.535Z,999.21
2018-12-10T02:02:12.521Z,999.26
2018-12-10T02:03:12.516Z,999.25
2018-12-10T02:04:12.500Z,999.28
2018-12-10T02:05:12.489Z,999.33
2018-12-10T02:06:12.480Z,999.27
2018-12-10T02:07:12.465Z,999.31
2018-12-10T02:08:12.455Z,999.35
2018-12-10T02:09:12.446Z,999.37
2018-12-10T02:10:12.432Z,999.39
2018-12-10T02:11:12.421Z,999.38
2018-12-10T02:12:12.408Z,999.40
2018-12-10T02:13:12.399Z,999.40
2018-12-10T02:14:12.387Z,999.42
2018-12-10T02:15:12.376Z,999.39
2018-12-10T02:16:12.366Z,999.38
2018-12-10T02:17:12.354Z,999.47
2018-12-10T02:18:12.343Z,999.46
2018-12-10T02:19:12.334Z,999.47
2018-12-10T02:20:12.322Z,999.40
2018-12-10T02:21:12.311Z,999.50
2018-12-10T02:22:12.301Z,999.52
2018-12-10T02:23:12.291Z,999.51
2018-12-10T02:24:12.275Z,999.54
2018-12-10T02:25:12.264Z,999.51
2018-12-10T02:26:12.253Z,999.55
2018-12-10T02:27:12.243Z,999.63
2018-12-10T02:28:12.236Z,999.56
2018-12-10T02:29:12.219Z,999.52
2018-12-10T02:30:12.213Z,999.63
2018-12-10T02:31:12.198Z,999.60
2018-12-10T02:32:12.186Z,999.61
2018-12-10T02:33:12.177Z,999.60
2018-12-10T02:34:12.179Z,999.61
2018-12-10T02:35:12.155Z,999.64
2018-12-10T02:36:12.143Z,999.61
2018-12-10T02:37:12.131Z,999.64
2018-12-10T02:38:12.120Z,999.65
2018-12-10T02:39:12.112Z,999.65
2018-12-10T02:40:12.097Z,999.67
2018-12-10T02:41:12.086Z,999.70
2018-12-10T02:42:12.075Z,999.62
2018-12-10T02:43:12.066Z,999.66
2018-12-10T02:44:12.055Z,999.69
2018-12-10T02:45:12.044Z,999.68
2018-12-10T02:46:12.032Z,999.75
2018-12-10T02:47:12.019Z,999.80
2018-12-10T02:48:12.016Z,999.83
2018-12-10T02:49:12.001Z,999.80
2018-12-10T02:50:11.986Z,999.80
2018-12-10T02:51:11.975Z,999.86
2018-12-10T02:52:11.964Z,999.80
2018-12-10T02:53:11.955Z,999.89
2018-12-10T02:54:11.941Z,999.82
2018-12-10T02:55:11.932Z,999.86
2018-12-10T02:56:11.921Z,999.90
2018-12-10T02:57:11.907Z,999.88
2018-12-10T02:58:11.897Z,999.88
2018-12-10T02:59:11.889Z,999.97
2018-12-10T03:00:11.878Z,999.87
2018-12-10T03:01:11.864Z,999.94
2018-12-10T03:02:11.858Z,999.86
2018-12-10T03:03:11.841Z,999.97
2018-12-10T03:04:11.904Z,999.89
2018-12-10T03:05:11.823Z,999.96
2018-12-10T03:06:11.807Z,999.88
2018-12-10T03:07:11.796Z,999.88
2018-12-10T03:08:11.789Z,999.93
2018-12-10T03:09:11.776Z,999.99
2018-12-10T03:10:11.766Z,1000.02
2018-12-10T03:11:11.753Z,999.95
2018-12-10T03:12:11.744Z,999.92
2018-12-10T03:13:11.731Z,1000.01
2018-12-10T03:14:11.722Z,999.87
2018-12-10T03:15:11.817Z,999.96
2018-12-10T03:16:11.697Z,1000.02
2018-12-10T03:17:11.687Z,1000.02
2018-12-10T03:18:11.673Z,999.99
2018-12-10T03:19:11.663Z,999.99
2018-12-10T03:20:11.655Z,1000.05
2018-12-10T03:21:11.642Z,1000.08
2018-12-10T03:22:11.628Z,1000.01
2018-12-10T03:23:11.618Z,1000.07
2018-12-10T03:24:11.606Z,1000.13
2018-12-10T03:25:11.597Z,1000.16
2018-12-10T03:26:11.584Z,1000.19
2018-12-10T03:27:11.574Z,1000.19
2018-12-10T03:28:11.563Z,1000.26
2018-12-10T03:29:11.550Z,1000.27
2018-12-10T03:30:11.541Z,1000.24
2018-12-10T03:31:11.543Z,1000.28
2018-12-10T03:32:11.521Z,1000.25
2018-12-10T03:33:11.512Z,1000.24
2018-12-10T03:34:11.495Z,1000.31
2018-12-10T03:35:11.483Z,1000.40
2018-12-10T03:36:11.473Z,1000.36
2018-12-10T03:37:11.464Z,1000.32
2018-12-10T03:38:11.451Z,1000.33
2018-12-10T03:39:11.440Z,1000.34
2018-12-10T03:40:11.430Z,1000.28
2018-12-10T03:41:11.419Z,1000.33
2018-12-10T03:42:11.407Z,1000.34
2018-12-10T03:43:11.397Z,1000.32
2018-12-10T03:44:11.384Z,1000.42
2018-12-10T03:45:11.379Z,1000.44
2018-12-10T03:46:11.362Z,1000.47
2018-12-10T03:47:11.351Z,1000.52
2018-12-10T03:48:11.342Z,1000.50
2018-12-10T03:49:11.329Z,1000.53
2018-12-10T03:50:11.318Z,1000.54
2018-12-10T03:51:11.308Z,1000.55
2018-12-10T03:52:11.294Z,1000.63
2018-12-10T03:53:11.287Z,1000.56
2018-12-10T03:54:11.271Z,1000.56
2018-12-10T03:55:11.262Z,1000.61
2018-12-10T03:56:11.252Z,1000.52
2018-12-10T03:57:11.243Z,1000.62
2018-12-10T03:58:11.235Z,1000.64
2018-12-10T03:59:11.216Z,1000.68
2018-12-10T04:00:11.231Z,1000.68
2018-12-10T04:01:11.199Z,1000.68
2018-12-10T04:02:11.264Z,1000.68
2018-12-10T04:03:11.176Z,1000.75
2018-12-10T04:04:11.160Z,1000.86
2018-12-10T04:05:11.152Z,1000.84
2018-12-10T04:06:11.140Z,1000.80
2018-12-10T04:07:11.128Z,1000.82
2018-12-10T04:08:11.123Z,1000.89
2018-12-10T04:09:11.106Z,1000.85
2018-12-10T04:10:11.096Z,1000.95
2018-12-10T04:11:11.083Z,1000.99
2018-12-10T04:12:11.075Z,1000.92
2018-12-10T04:13:11.069Z,1000.95
2018-12-10T04:14:11.050Z,1000.93
2018-12-10T04:15:11.039Z,1001.00
2018-12-10T04:16:11.027Z,1000.98
2018-12-10T04:17:11.016Z,1001.02
2018-12-10T04:18:11.005Z,1001.01
2018-12-10T04:19:10.994Z,1001.04
2018-12-10T04:20:10.984Z,1001.09
2018-12-10T04:21:10.971Z,1001.10
2018-12-10T04:22:10.962Z,1001.06
2018-12-10T04:23:10.950Z,1001.12
2018-12-10T04:24:10.943Z,1001.06
2018-12-10T04:25:10.927Z,1001.00
2018-12-10T04:26:10.916Z,1001.15
2018-12-10T04:27:10.910Z,1001.00
2018-12-10T04:28:10.893Z,1001.10
2018-12-10T04:29:10.887Z,1001.07
2018-12-10T04:30:10.873Z,1001.16
2018-12-10T04:31:10.860Z,1001.07
2018-12-10T04:32:10.849Z,1001.02
2018-12-10T04:33:10.837Z,1001.05
2018-12-10T04:34:10.829Z,1001.07
2018-12-10T04:35:10.822Z,1001.12
2018-12-10T04:36:10.807Z,1001.16
2018-12-10T04:37:10.810Z,1001.23
2018-12-10T04:38:10.784Z,1001.24
2018-12-10T04:39:10.773Z,1001.23
2018-12-10T04:40:10.759Z,1001.20
2018-12-10T04:41:10.763Z,1001.28
2018-12-10T04:42:10.738Z,1001.25
2018-12-10T04:43:10.777Z,1001.25
2018-12-10T04:44:10.756Z,1001.21
2018-12-10T04:45:10.705Z,1001.34
2018-12-10T04:46:10.697Z,1001.26
2018-12-10T04:47:10.681Z,1001.46
2018-12-10T04:48:10.673Z,1001.41
2018-12-10T04:49:10.661Z,1001.32
2018-12-10T04:50:10.649Z,1001.43
2018-12-10T04:51:10.638Z,1001.48
2018-12-10T04:52:10.749Z,1001.41
2018-12-10T04:53:10.621Z,1001.39
2018-12-10T04:54:10.622Z,1001.43
2018-12-10T04:55:10.594Z,1001.36
2018-12-10T04:56:10.581Z,1001.48
2018-12-10T04:57:10.573Z,1001.46
2018-12-10T04:58:10.560Z,1001.41
2018-12-10T04:59:10.548Z,1001.47
2018-12-10T05:00:10.538Z,1001.51
2018-12-10T05:01:10.525Z,1001.50
2018-12-10T05:02:10.515Z,1001.49
2018-12-10T05:03:10.503Z,1001.52
2018-12-10T05:04:10.497Z,1001.53
2018-12-10T05:05:10.482Z,1001.50
2018-12-10T05:06:10.470Z,1001.57
2018-12-10T05:07:10.459Z,1001.63
2018-12-10T05:08:10.449Z,1001.53
2018-12-10T05:09:10.437Z,1001.67
2018-12-10T05:10:10.425Z,1001.63
2018-12-10T05:11:10.414Z,1001.60
2018-12-10T05:12:10.403Z,1001.68
2018-12-10T05:13:10.393Z,1001.57
2018-12-10T05:14:10.379Z,1001.68
2018-12-10T05:15:10.373Z,1001.64
2018-12-10T05:16:10.359Z,1001.69
2018-12-10T05:17:10.348Z,1001.68
2018-12-10T05:18:10.341Z,1001.75
2018-12-10T05:19:10.328Z,1001.73
2018-12-10T05:20:10.315Z,1001.71
2018-12-10T05:21:10.304Z,1001.80
2018-12-10T05:22:10.292Z,1001.73
2018-12-10T05:23:10.281Z,1001.69
2018-12-10T05:24:10.268Z,1001.71
2018-12-10T05:25:10.259Z,1001.74
2018-12-10T05:26:10.250Z,1001.73
2018-12-10T05:27:10.238Z,1001.77
2018-12-10T05:28:10.224Z,1001.79
2018-12-10T05:30:37.175Z,1001.84
2018-12-10T05:31:37.165Z,1001.86
2018-12-10T05:33:18.703Z,1001.93
2018-12-10T05:34:18.698Z,1001.76
2018-12-10T05:35:49.354Z,1001.76
2018-12-10T05:36:49.346Z,1001.91
2018-12-10T05:38:30.879Z,1001.89
2018-12-10T05:39:30.864Z,1001.86
2018-12-10T05:41:12.930Z,1001.95
2018-12-10T05:42:12.886Z,1002.01
2018-12-10T05:43:12.876Z,1002.03
2018-12-10T05:44:12.863Z,1001.99
2018-12-10T05:45:12.853Z,1002.06
2018-12-10T05:46:12.871Z,1001.98
2018-12-10T05:47:12.831Z,1002.02
2018-12-10T05:48:12.822Z,1002.06
2018-12-10T05:49:12.809Z,1002.10
2018-12-10T05:50:12.812Z,1002.16
2018-12-10T05:51:12.790Z,1002.11
2018-12-10T05:52:12.777Z,1002.13
2018-12-10T05:53:12.765Z,1002.12
2018-12-10T05:54:12.753Z,1002.06
2018-12-10T05:55:12.743Z,1002.16
2018-12-10T05:56:12.732Z,1002.17
2018-12-10T05:57:12.721Z,1002.19
2018-12-10T05:58:12.710Z,1002.24
2018-12-10T05:59:12.699Z,1002.17
2018-12-10T06:00:12.687Z,1002.21
2018-12-10T06:01:12.676Z,1002.21
2018-12-10T06:02:12.667Z,1002.24
2018-12-10T06:03:12.653Z,1002.21
2018-12-10T06:04:12.645Z,1002.13
2018-12-10T06:05:12.632Z,1002.18
2018-12-10T06:06:12.622Z,1002.25
2018-12-10T06:07:12.611Z,1002.21
2018-12-10T06:08:12.598Z,1002.30
2018-12-10T06:09:12.588Z,1002.20
2018-12-10T06:10:12.578Z,1002.28
2018-12-10T06:11:12.566Z,1002.25
2018-12-10T06:12:12.560Z,1002.28
2018-12-10T06:13:12.546Z,1002.28
2018-12-10T06:14:12.532Z,1002.33
2018-12-10T06:15:12.525Z,1002.33
2018-12-10T06:16:12.509Z,1002.37
2018-12-10T06:17:12.499Z,1002.30
2018-12-10T06:18:12.491Z,1002.39
2018-12-10T06:19:12.478Z,1002.35
2018-12-10T06:20:12.467Z,1002.45
2018-12-10T06:21:12.456Z,1002.39
2018-12-10T06:22:12.444Z,1002.39
2018-12-10T06:23:12.433Z,1002.47
2018-12-10T06:24:12.425Z,1002.43
2018-12-10T06:25:12.413Z,1002.50
2018-12-10T06:26:12.401Z,1002.48
2018-12-10T06:27:12.389Z,1002.49
2018-12-10T06:28:12.379Z,1002.47
2018-12-10T06:29:12.368Z,1002.60
2018-12-10T06:30:12.357Z,1002.57
2018-12-10T06:31:12.347Z,1002.61
2018-12-10T06:32:12.333Z,1002.63
2018-12-10T06:33:12.325Z,1002.67
2018-12-10T06:34:12.313Z,1002.65
2018-12-10T06:35:12.302Z,1002.75
2018-12-10T06:36:12.301Z,1002.73
2018-12-10T06:37:12.279Z,1002.76
2018-12-10T06:38:12.267Z,1002.78
2018-12-10T06:39:12.258Z,1002.78
2018-12-10T06:40:12.247Z,1002.75
2018-12-10T06:41:12.235Z,1002.76
2018-12-10T06:42:12.227Z,1002.82
2018-12-10T06:43:12.212Z,1002.87
2018-12-10T06:44:12.201Z,1002.79
2018-12-10T06:45:12.190Z,1002.80
2018-12-10T06:46:12.178Z,1002.88
2018-12-10T06:47:12.168Z,1002.85
2018-12-10T06:48:12.156Z,1002.80
2018-12-10T06:49:12.148Z,1002.94
2018-12-10T06:50:12.138Z,1002.97
2018-12-10T06:51:12.250Z,1002.95
2018-12-10T06:52:12.120Z,1002.97
2018-12-10T06:53:12.110Z,1002.99
2018-12-10T06:54:12.135Z,1003.06
2018-12-10T06:55:12.591Z,1003.10
2018-12-10T06:56:12.298Z,1003.21
2018-12-10T06:57:12.061Z,1003.18
2018-12-10T06:58:12.047Z,1003.19
2018-12-10T06:59:12.035Z,1003.22
2018-12-10T07:00:12.025Z,1003.21
2018-12-10T07:01:12.014Z,1003.33
2018-12-10T07:02:12.004Z,1003.21
2018-12-10T07:03:11.994Z,1003.27
2018-12-10T07:04:11.981Z,1003.29
2018-12-10T07:05:11.971Z,1003.20
2018-12-10T07:06:11.960Z,1003.17
2018-12-10T07:07:11.949Z,1003.19
2018-12-10T07:08:11.937Z,1003.25
2018-12-10T07:09:11.927Z,1003.19
2018-12-10T07:10:11.935Z,1003.18
2018-12-10T07:11:11.903Z,1003.23
2018-12-10T07:12:11.894Z,1003.16
2018-12-10T07:13:11.883Z,1003.27
2018-12-10T07:14:11.872Z,1003.16
2018-12-10T07:15:11.861Z,1003.27
2018-12-10T07:16:11.850Z,1003.26
2018-12-10T07:17:11.838Z,1003.23
2018-12-10T07:18:11.830Z,1003.27
2018-12-10T07:19:11.816Z,1003.27
2018-12-10T07:20:11.808Z,1003.27
2018-12-10T07:21:11.794Z,1003.28
2018-12-10T07:22:11.784Z,1003.26
2018-12-10T07:23:11.773Z,1003.31
2018-12-10T07:24:11.761Z,1003.32
2018-12-10T07:25:11.750Z,1003.30
2018-12-10T07:26:11.740Z,1003.29
2018-12-10T07:27:11.729Z,1003.32
2018-12-10T07:28:11.722Z,1003.36
2018-12-10T07:29:11.706Z,1003.43
2018-12-10T07:30:11.694Z,1003.40
2018-12-10T07:31:11.684Z,1003.42
2018-12-10T07:32:11.673Z,1003.42
2018-12-10T07:33:11.662Z,1003.48
2018-12-10T07:34:11.650Z,1003.47
2018-12-10T07:35:11.642Z,1003.50
2018-12-10T07:36:11.627Z,1003.48
2018-12-10T07:37:11.617Z,1003.43
2018-12-10T07:38:11.606Z,1003.41
2018-12-10T07:39:11.597Z,1003.56
2018-12-10T07:40:11.592Z,1003.52
2018-12-10T07:41:11.574Z,1003.51
2018-12-10T07:42:11.566Z,1003.54
2018-12-10T07:43:11.552Z,1003.48
2018-12-10T07:44:11.541Z,1003.50
2018-12-10T07:45:11.528Z,1003.48
2018-12-10T07:46:11.522Z,1003.48
2018-12-10T07:47:11.508Z,1003.49
2018-12-10T07:48:11.497Z,1003.48
2018-12-10T07:49:11.487Z,1003.53
2018-12-10T07:50:11.475Z,1003.49
2018-12-10T07:51:11.463Z,1003.52
2018-12-10T07:52:11.452Z,1003.54
2018-12-10T07:53:11.442Z,1003.48
2018-12-10T07:54:11.437Z,1003.58
2018-12-10T07:55:11.419Z,1003.52
2018-12-10T07:56:11.408Z,1003.49
2018-12-10T07:57:11.398Z,1003.57
2018-12-10T07:58:11.386Z,1003.62
2018-12-10T07:59:11.375Z,1003.54
2018-12-10T08:00:11.366Z,1003.51
2018-12-10T08:01:12.207Z,1003.59
2018-12-10T08:02:11.342Z,1003.62
2018-12-10T08:03:11.333Z,1003.57
2018-12-10T08:04:11.319Z,1003.67
2018-12-10T08:05:12.444Z,1003.60
2018-12-10T08:06:11.297Z,1003.61
2018-12-10T08:07:11.288Z,1003.57
2018-12-10T08:08:11.277Z,1003.62
2018-12-10T08:09:11.264Z,1003.62
2018-12-10T08:10:11.255Z,1003.68
2018-12-10T08:11:11.242Z,1003.62
2018-12-10T08:12:11.231Z,1003.57
2018-12-10T08:13:11.222Z,1003.59
2018-12-10T08:14:11.209Z,1003.57
2018-12-10T08:15:11.200Z,1003.70
2018-12-10T08:16:11.188Z,1003.69
2018-12-10T08:17:11.178Z,1003.72
2018-12-10T08:18:11.166Z,1003.76
2018-12-10T08:19:11.154Z,1003.63
2018-12-10T08:20:11.143Z,1003.75
2018-12-10T08:21:11.132Z,1003.78
2018-12-10T08:22:11.124Z,1003.77
2018-12-10T08:23:11.110Z,1003.75
2018-12-10T08:24:11.102Z,1003.74
2018-12-10T08:25:11.088Z,1003.77
2018-12-10T08:26:11.078Z,1003.68
2018-12-10T08:27:11.067Z,1003.78
2018-12-10T08:28:11.056Z,1003.75
2018-12-10T08:29:11.059Z,1003.87
2018-12-10T08:30:11.033Z,1003.89
2018-12-10T08:31:11.022Z,1003.85
2018-12-10T08:32:11.012Z,1003.87
2018-12-10T08:33:11.001Z,1003.82
2018-12-10T08:34:10.994Z,1003.75
2018-12-10T08:35:10.978Z,1003.76
2018-12-10T08:36:10.967Z,1003.78
2018-12-10T08:37:10.960Z,1003.78
2018-12-10T08:38:10.945Z,1003.78
2018-12-10T08:39:10.935Z,1003.82
2018-12-10T08:40:10.923Z,1003.79
2018-12-10T08:41:10.912Z,1003.83
2018-12-10T08:42:10.900Z,1003.88
2018-12-10T08:43:10.890Z,1003.79
2018-12-10T08:44:10.889Z,1003.87
2018-12-10T08:45:10.868Z,1003.85
2018-12-10T08:46:10.859Z,1003.81
2018-12-10T08:47:16.052Z,1003.78
2018-12-10T08:48:11.833Z,1003.87
2018-12-10T08:49:10.827Z,1003.84
2018-12-10T08:50:10.812Z,1003.88
2018-12-10T08:51:10.825Z,1003.90
2018-12-10T08:52:10.790Z,1003.75
2018-12-10T08:53:10.779Z,1003.81
2018-12-10T08:54:10.767Z,1003.86
2018-12-10T08:55:10.757Z,1003.77
2018-12-10T08:56:10.746Z,1003.87
2018-12-10T08:57:10.831Z,1003.87
2018-12-10T08:58:10.724Z,1003.88
2018-12-10T08:59:10.713Z,1003.89
2018-12-10T09:00:10.701Z,1003.96
2018-12-10T09:01:10.691Z,1004.01
2018-12-10T09:02:10.679Z,1004.09
2018-12-10T09:03:10.671Z,1004.13
2018-12-10T09:04:10.658Z,1004.12
2018-12-10T09:05:10.646Z,1004.03
2018-12-10T09:06:10.635Z,1004.00
2018-12-10T09:07:10.627Z,1003.97
2018-12-10T09:08:10.614Z,1004.05
2018-12-10T09:09:10.602Z,1004.10
2018-12-10T09:10:10.596Z,1004.11
2018-12-10T09:11:10.582Z,1004.16
2018-12-10T09:12:10.570Z,1004.23
2018-12-10T09:13:10.558Z,1004.05
2018-12-10T09:14:10.551Z,1004.09
2018-12-10T09:15:10.536Z,1004.06
2018-12-10T09:16:10.525Z,1004.15
2018-12-10T09:17:10.514Z,1004.20
2018-12-10T09:18:10.617Z,1004.14
2018-12-10T09:19:10.496Z,1004.03
2018-12-10T09:20:10.483Z,1004.16
2018-12-10T09:21:10.471Z,1004.13
2018-12-10T09:22:10.458Z,1004.24
2018-12-10T09:23:10.450Z,1004.29
2018-12-10T09:24:10.437Z,1004.18
2018-12-10T09:25:10.426Z,1004.33
2018-12-10T09:26:10.415Z,1004.18
2018-12-10T09:27:10.410Z,1004.29
2018-12-10T09:28:10.392Z,1004.20
2018-12-10T09:29:10.486Z,1004.19
2018-12-10T09:30:10.371Z,1004.26
2018-12-10T09:31:10.362Z,1004.28
2018-12-10T09:32:12.393Z,1004.26
2018-12-10T09:33:10.338Z,1004.35
2018-12-10T09:34:10.326Z,1004.34
2018-12-10T09:35:10.329Z,1004.29
2018-12-10T09:36:10.303Z,1004.32
2018-12-10T09:37:10.293Z,1004.30
2018-12-10T09:38:10.283Z,1004.43
2018-12-10T09:39:10.271Z,1004.36
2018-12-10T09:40:10.260Z,1004.42
2018-12-10T09:41:10.249Z,1004.39
2018-12-10T09:42:10.238Z,1004.25
2018-12-10T09:43:10.228Z,1004.25
2018-12-10T09:44:10.217Z,1004.24
2018-12-10T09:45:10.207Z,1004.36
2018-12-10T09:46:10.194Z,1004.28
2018-12-10T09:47:10.185Z,1004.32
2018-12-10T09:48:10.171Z,1004.35
2018-12-10T09:49:10.163Z,1004.30
2018-12-10T09:50:10.150Z,1004.34
2018-12-10T09:51:10.140Z,1004.41
2018-12-10T09:52:10.128Z,1004.27
2018-12-10T09:53:10.118Z,1004.29
2018-12-10T09:54:10.105Z,1004.37
2018-12-10T09:55:10.098Z,1004.35
2018-12-10T09:56:10.085Z,1004.43
2018-12-10T09:57:10.073Z,1004.31
2018-12-10T09:58:10.063Z,1004.42
2018-12-10T09:59:10.055Z,1004.44
2018-12-10T10:00:10.041Z,1004.47
2018-12-10T10:01:10.029Z,1004.47
2018-12-10T10:02:12.359Z,1004.46
2018-12-10T10:03:10.007Z,1004.51
2018-12-10T10:04:09.995Z,1004.44
2018-12-10T10:05:09.985Z,1004.53
2018-12-10T10:06:09.974Z,1004.62
2018-12-10T10:07:09.965Z,1004.45
2018-12-10T10:08:09.950Z,1004.64
2018-12-10T10:09:09.940Z,1004.53
2018-12-10T10:10:09.931Z,1004.46
2018-12-10T10:11:09.923Z,1004.52
2018-12-10T10:12:09.908Z,1004.52
2018-12-10T10:13:09.899Z,1004.56
2018-12-10T10:14:09.887Z,1004.55
2018-12-10T10:15:09.875Z,1004.54
2018-12-10T10:16:09.863Z,1004.49
2018-12-10T10:17:09.853Z,1004.54
2018-12-10T10:18:09.843Z,1004.64
2018-12-10T10:19:09.830Z,1004.56
2018-12-10T10:20:09.819Z,1004.68
2018-12-10T10:21:11.495Z,1004.59
2018-12-10T10:22:09.797Z,1004.52
2018-12-10T10:23:09.849Z,1004.54
2018-12-10T10:24:09.776Z,1004.62
2018-12-10T10:25:09.765Z,1004.68
2018-12-10T10:26:09.756Z,1004.67
2018-12-10T10:27:09.744Z,1004.62
2018-12-10T10:28:09.734Z,1004.62
2018-12-10T10:29:09.719Z,1004.49
2018-12-10T10:30:09.710Z,1004.56
2018-12-10T10:31:09.698Z,1004.55
2018-12-10T10:32:09.687Z,1004.57
2018-12-10T10:33:09.680Z,1004.56
2018-12-10T10:34:09.666Z,1004.63
2018-12-10T10:35:09.654Z,1004.74
2018-12-10T10:36:09.642Z,1004.63
2018-12-10T10:37:09.634Z,1004.63
2018-12-10T10:38:09.621Z,1004.54
2018-12-10T10:39:09.610Z,1004.64
2018-12-10T10:40:09.601Z,1004.69
2018-12-10T10:41:09.587Z,1004.62
2018-12-10T10:42:09.576Z,1004.61
2018-12-10T10:43:09.566Z,1004.59
2018-12-10T10:44:09.555Z,1004.57
2018-12-10T10:45:09.543Z,1004.64
2018-12-10T10:46:09.532Z,1004.56
2018-12-10T10:47:09.522Z,1004.66
2018-12-10T10:48:09.513Z,1004.57
2018-12-10T10:49:09.499Z,1004.69
2018-12-10T10:50:09.488Z,1004.63
2018-12-10T10:51:09.477Z,1004.62
2018-12-10T10:52:09.466Z,1004.66
2018-12-10T10:53:09.455Z,1004.61
2018-12-10T10:54:09.443Z,1004.56
2018-12-10T10:55:09.432Z,1004.68
2018-12-10T10:56:09.421Z,1004.65
2018-12-10T10:57:09.411Z,1004.61
2018-12-10T10:58:09.399Z,1004.66
2018-12-10T10:59:09.391Z,1004.53
2018-12-10T11:00:09.377Z,1004.61
2018-12-10T11:01:09.365Z,1004.62
2018-12-10T11:02:09.355Z,1004.57
2018-12-10T11:03:09.346Z,1004.61
2018-12-10T11:04:10.549Z,1004.64
2018-12-10T11:05:09.325Z,1004.58
2018-12-10T11:06:09.312Z,1004.63
2018-12-10T11:07:09.301Z,1004.62
2018-12-10T11:08:09.289Z,1004.62
2018-12-10T11:09:15.237Z,1004.66
2018-12-10T11:10:10.266Z,1004.67
2018-12-10T11:11:09.266Z,1004.71
2018-12-10T11:12:09.245Z,1004.73
2018-12-10T11:13:09.235Z,1004.73
2018-12-10T11:14:09.226Z,1004.73
2018-12-10T11:15:09.212Z,1004.67
2018-12-10T11:16:09.201Z,1004.66
2018-12-10T11:17:09.191Z,1004.64
2018-12-10T11:18:09.179Z,1004.62
2018-12-10T11:19:09.168Z,1004.60
2018-12-10T11:20:09.157Z,1004.63
2018-12-10T11:21:09.145Z,1004.61
2018-12-10T11:22:09.138Z,1004.59
2018-12-10T11:23:09.124Z,1004.64
2018-12-10T11:24:09.112Z,1004.65
2018-12-10T11:25:09.106Z,1004.58
2018-12-10T11:26:09.092Z,1004.59
2018-12-10T11:27:09.079Z,1004.58
2018-12-10T11:28:09.069Z,1004.58
2018-12-10T11:30:28.601Z,1004.68
2018-12-10T11:31:28.590Z,1004.74
2018-12-10T11:33:10.636Z,1004.74
2018-12-10T11:34:10.623Z,1004.72
2018-12-10T11:35:10.613Z,1004.62
2018-12-10T11:36:10.603Z,1004.68
2018-12-10T11:37:10.590Z,1004.62
2018-12-10T11:38:10.581Z,1004.65
2018-12-10T11:39:10.570Z,1004.64
2018-12-10T11:40:10.565Z,1004.60
2018-12-10T11:41:10.544Z,1004.68
2018-12-10T11:42:10.534Z,1004.59
2018-12-10T11:43:10.523Z,1004.69
2018-12-10T11:44:10.514Z,1004.63
2018-12-10T11:45:10.502Z,1004.72
2018-12-10T11:46:10.491Z,1004.69
2018-12-10T11:47:13.148Z,1004.66
2018-12-10T11:48:10.473Z,1004.64
2018-12-10T11:49:10.457Z,1004.68
2018-12-10T11:50:10.456Z,1004.67
2018-12-10T11:51:10.437Z,1004.62
2018-12-10T11:52:10.425Z,1004.67
2018-12-10T11:53:10.416Z,1004.77
2018-12-10T11:54:10.400Z,1004.70
2018-12-10T11:55:10.389Z,1004.72
2018-12-10T11:56:10.380Z,1004.69
2018-12-10T11:57:10.367Z,1004.62
2018-12-10T11:58:10.356Z,1004.66
2018-12-10T11:59:10.347Z,1004.74
2018-12-10T12:00:10.335Z,1004.66
2018-12-10T12:01:10.322Z,1004.66
2018-12-10T12:02:10.313Z,1004.72
2018-12-10T12:03:10.305Z,1004.76
2018-12-10T12:04:10.292Z,1004.62
2018-12-10T12:05:10.279Z,1004.67
2018-12-10T12:06:10.267Z,1004.70
2018-12-10T12:07:10.260Z,1004.65
2018-12-10T12:08:10.245Z,1004.68
2018-12-10T12:09:10.233Z,1004.63
2018-12-10T12:10:10.221Z,1004.63
2018-12-10T12:11:10.210Z,1004.66
2018-12-10T12:12:10.200Z,1004.62
2018-12-10T12:13:10.188Z,1004.66
2018-12-10T12:14:10.178Z,1004.68
2018-12-10T12:15:10.166Z,1004.65
2018-12-10T12:16:10.154Z,1004.59
2018-12-10T12:17:10.142Z,1004.65